PWSweather.com
Personal Weather Stations
Station Observations
CW9610
Eastern Jefferson County Kansas, Mclouth, KS 66054

Eastern Jefferson County KansasMclouth, KS 66054

Lat: 39.1947, Lon: -95.238

Elevation: 1151

Station Type: Davis VP2

http://mclouthweatherlive.ddns.net

Latest ConditionsUpdated 8:00:00 PM CST Sunday, Feb 18, 2018
Currently Today's Max Today's Min Today's Average
Temperature 53.8°F12.1°C 56.3°F13.5°C 33.9°F1.1°C 45.9°F7.7°C
Dew Point 43.9°F6.6°C 43.9°F6.6°C 19.9°F-6.7°C 30.7°F-0.7°C
Winds 12.8 mph S20.6 kmh S 18.7 mph S30.1 kmh S - 9.5 mph 15.3 kmh
Wind Gusts 21.0 mph33.8 kmh 34.0 mph54.7 kmh - -
Humidity 69% 78% 36% 57%
Pressure 29.86 in1011.2 mb 30.36 in1028.1 mb 29.84 in1010.5 mb -
Hour Temp Dew Point Humidity Winds Wind Gusts Pressure Precip Precip Rate Daily Precip Total
08:00 PM 53.8°F12.1°C 43.9°F6.6°C 69% 12.8 mph S20.6 kmh S 21.0 mph33.8 kmh 29.86 in1011.2 mb 0.00 in0.0 mm 0.00 in0.0 mm 0.00 in0.0 mm
07:45 PM 53.9°F12.2°C 43.6°F6.4°C 68% 11.9 mph S19.2 kmh S 22.0 mph35.4 kmh 29.87 in1011.5 mb 0.00 in0.0 mm 0.00 in0.0 mm 0.00 in0.0 mm
07:30 PM 54.0°F12.2°C 43.3°F6.3°C 67% 11.3 mph S18.2 kmh S 23.0 mph37.0 kmh 29.87 in1011.5 mb 0.00 in0.0 mm 0.00 in0.0 mm 0.00 in0.0 mm
07:15 PM 54.1°F12.3°C 42.6°F5.9°C 65% 13.3 mph S21.4 kmh S 22.0 mph35.4 kmh 29.87 in1011.5 mb 0.00 in0.0 mm 0.00 in0.0 mm 0.00 in0.0 mm
07:00 PM 54.4°F12.4°C 42.9°F6.1°C 65% 14.5 mph S23.3 kmh S 30.0 mph48.3 kmh 29.87 in1011.5 mb 0.00 in0.0 mm 0.00 in0.0 mm 0.00 in0.0 mm
06:45 PM 55.0°F12.8°C 42.2°F5.7°C 62% 10.9 mph S17.5 kmh S 32.0 mph51.5 kmh 29.87 in1011.5 mb 0.00 in0.0 mm 0.00 in0.0 mm 0.00 in0.0 mm
06:30 PM 55.0°F12.8°C 40.9°F4.9°C 59% 10.9 mph SSW17.5 kmh SSW 21.0 mph33.8 kmh 29.87 in1011.5 mb 0.00 in0.0 mm 0.00 in0.0 mm 0.00 in0.0 mm
06:15 PM 55.0°F12.8°C 40.0°F4.4°C 57% 11.5 mph S18.5 kmh S 19.0 mph30.6 kmh 29.86 in1011.2 mb 0.00 in0.0 mm 0.00 in0.0 mm 0.00 in0.0 mm
06:00 PM 55.4°F13.0°C 40.0°F4.4°C 56% 11.3 mph S18.2 kmh S 22.0 mph35.4 kmh 29.86 in1011.2 mb 0.00 in0.0 mm 0.00 in0.0 mm 0.00 in0.0 mm
05:45 PM 55.8°F13.2°C 39.4°F4.1°C 54% 10.7 mph S17.2 kmh S 19.0 mph30.6 kmh 29.86 in1011.2 mb 0.00 in0.0 mm 0.00 in0.0 mm 0.00 in0.0 mm
05:30 PM 55.9°F13.3°C 39.5°F4.2°C 54% 10.6 mph S17.1 kmh S 19.0 mph30.6 kmh 29.87 in1011.5 mb 0.00 in0.0 mm 0.00 in0.0 mm 0.00 in0.0 mm
05:15 PM 55.6°F13.1°C 38.2°F3.4°C 52% 13.3 mph S21.4 kmh S 21.0 mph33.8 kmh 29.86 in1011.2 mb 0.00 in0.0 mm 0.00 in0.0 mm 0.00 in0.0 mm
05:00 PM 56.0°F13.3°C 37.6°F3.1°C 50% 13.6 mph S21.9 kmh S 22.0 mph35.4 kmh 29.84 in1010.5 mb 0.00 in0.0 mm 0.00 in0.0 mm 0.00 in0.0 mm
04:45 PM 55.8°F13.2°C 37.4°F3.0°C 50% 13.0 mph S20.9 kmh S 23.0 mph37.0 kmh 29.85 in1010.8 mb 0.00 in0.0 mm 0.00 in0.0 mm 0.00 in0.0 mm
04:30 PM 55.6°F13.1°C 37.2°F2.9°C 50% 14.2 mph S22.9 kmh S 23.0 mph37.0 kmh 29.86 in1011.2 mb 0.00 in0.0 mm 0.00 in0.0 mm 0.00 in0.0 mm
04:15 PM 55.9°F13.3°C 36.5°F2.5°C 48% 14.9 mph S24.0 kmh S 24.0 mph38.6 kmh 29.86 in1011.2 mb 0.00 in0.0 mm 0.00 in0.0 mm 0.00 in0.0 mm
04:00 PM 56.3°F13.5°C 36.8°F2.7°C 48% 14.1 mph S22.7 kmh S 22.0 mph35.4 kmh 29.87 in1011.5 mb 0.00 in0.0 mm 0.00 in0.0 mm 0.00 in0.0 mm
03:45 PM 55.7°F13.2°C 36.3°F2.4°C 48% 16.8 mph S27.0 kmh S 27.0 mph43.5 kmh 29.89 in1012.2 mb 0.00 in0.0 mm 0.00 in0.0 mm 0.00 in0.0 mm
03:30 PM 55.4°F13.0°C 35.5°F1.9°C 47% 14.2 mph S22.9 kmh S 25.0 mph40.2 kmh 29.90 in1012.5 mb 0.00 in0.0 mm 0.00 in0.0 mm 0.00 in0.0 mm
03:15 PM 55.7°F13.2°C 35.2°F1.8°C 46% 14.3 mph S23.0 kmh S 27.0 mph43.5 kmh 29.91 in1012.9 mb 0.00 in0.0 mm 0.00 in0.0 mm 0.00 in0.0 mm
03:00 PM 55.7°F13.2°C 34.7°F1.5°C 45% 14.3 mph S23.0 kmh S 25.0 mph40.2 kmh 29.91 in1012.9 mb 0.00 in0.0 mm 0.00 in0.0 mm 0.00 in0.0 mm
02:45 PM 54.5°F12.5°C 34.1°F1.2°C 46% 15.0 mph S24.1 kmh S 24.0 mph38.6 kmh 29.92 in1013.2 mb 0.00 in0.0 mm 0.00 in0.0 mm 0.00 in0.0 mm
02:30 PM 54.7°F12.6°C 33.2°F0.7°C 44% 16.7 mph S26.9 kmh S 33.0 mph53.1 kmh 29.94 in1013.9 mb 0.00 in0.0 mm 0.00 in0.0 mm 0.00 in0.0 mm
02:15 PM 53.1°F11.7°C 32.3°F0.2°C 45% 17.0 mph S27.4 kmh S 33.0 mph53.1 kmh 29.96 in1014.6 mb 0.00 in0.0 mm 0.00 in0.0 mm 0.00 in0.0 mm
02:00 PM 53.5°F11.9°C 31.0°F-0.6°C 42% 15.5 mph S24.9 kmh S 31.0 mph49.9 kmh 29.97 in1014.9 mb 0.00 in0.0 mm 0.00 in0.0 mm 0.00 in0.0 mm
01:45 PM 54.1°F12.3°C 29.7°F-1.3°C 39% 14.4 mph S23.2 kmh S 28.0 mph45.1 kmh 29.99 in1015.6 mb 0.00 in0.0 mm 0.00 in0.0 mm 0.00 in0.0 mm
01:30 PM 54.3°F12.4°C 29.2°F-1.6°C 38% 14.3 mph S23.0 kmh S 23.0 mph37.0 kmh 30.00 in1015.9 mb 0.00 in0.0 mm 0.00 in0.0 mm 0.00 in0.0 mm
01:15 PM 53.0°F11.7°C 28.0°F-2.2°C 38% 14.7 mph S23.7 kmh S 21.0 mph33.8 kmh 30.01 in1016.3 mb 0.00 in0.0 mm 0.00 in0.0 mm 0.00 in0.0 mm
01:00 PM 51.8°F11.0°C 27.6°F-2.4°C 39% 15.1 mph S24.3 kmh S 27.0 mph43.5 kmh 30.03 in1016.9 mb 0.00 in0.0 mm 0.00 in0.0 mm 0.00 in0.0 mm
12:45 PM 51.8°F11.0°C 27.6°F-2.4°C 39% 15.5 mph S24.9 kmh S 28.0 mph45.1 kmh 30.04 in1017.3 mb 0.00 in0.0 mm 0.00 in0.0 mm 0.00 in0.0 mm
12:30 PM 51.2°F10.7°C 27.1°F-2.7°C 39% 13.7 mph S22.0 kmh S 25.0 mph40.2 kmh 30.06 in1017.9 mb 0.00 in0.0 mm 0.00 in0.0 mm 0.00 in0.0 mm
12:15 PM 50.8°F10.4°C 27.9°F-2.3°C 41% 16.3 mph S26.2 kmh S 26.0 mph41.8 kmh 30.08 in1018.6 mb 0.00 in0.0 mm 0.00 in0.0 mm 0.00 in0.0 mm
12:00 PM 50.5°F10.3°C 27.0°F-2.8°C 40% 18.7 mph S30.1 kmh S 28.0 mph45.1 kmh 30.09 in1019.0 mb 0.00 in0.0 mm 0.00 in0.0 mm 0.00 in0.0 mm
11:45 AM 50.5°F10.3°C 26.4°F-3.1°C 39% 18.5 mph S29.8 kmh S 34.0 mph54.7 kmh 30.11 in1019.6 mb 0.00 in0.0 mm 0.00 in0.0 mm 0.00 in0.0 mm
11:30 AM 51.5°F10.8°C 26.1°F-3.3°C 37% 17.3 mph S27.8 kmh S 31.0 mph49.9 kmh 30.12 in1020.0 mb 0.00 in0.0 mm 0.00 in0.0 mm 0.00 in0.0 mm
11:15 AM 51.3°F10.7°C 25.2°F-3.8°C 36% 16.5 mph S26.6 kmh S 27.0 mph43.5 kmh 30.14 in1020.7 mb 0.00 in0.0 mm 0.00 in0.0 mm 0.00 in0.0 mm
11:00 AM 51.6°F10.9°C 25.5°F-3.6°C 36% 15.1 mph S24.3 kmh S 26.0 mph41.8 kmh 30.15 in1021.0 mb 0.00 in0.0 mm 0.00 in0.0 mm 0.00 in0.0 mm
10:45 AM 51.3°F10.7°C 27.2°F-2.7°C 39% 14.4 mph S23.2 kmh S 26.0 mph41.8 kmh 30.15 in1021.0 mb 0.00 in0.0 mm 0.00 in0.0 mm 0.00 in0.0 mm
10:30 AM 50.5°F10.3°C 27.7°F-2.4°C 41% 12.6 mph S20.3 kmh S 21.0 mph33.8 kmh 30.15 in1021.0 mb 0.00 in0.0 mm 0.00 in0.0 mm 0.00 in0.0 mm
10:15 AM 49.9°F9.9°C 27.7°F-2.4°C 42% 14.0 mph S22.5 kmh S 29.0 mph46.7 kmh 30.16 in1021.3 mb 0.00 in0.0 mm 0.00 in0.0 mm 0.00 in0.0 mm
10:00 AM 47.9°F8.8°C 28.1°F-2.2°C 46% 13.6 mph S21.9 kmh S 24.0 mph38.6 kmh 30.17 in1021.7 mb 0.00 in0.0 mm 0.00 in0.0 mm 0.00 in0.0 mm
09:45 AM 47.0°F8.3°C 30.3°F-0.9°C 52% 12.9 mph S20.8 kmh S 20.0 mph32.2 kmh 30.18 in1022.0 mb 0.00 in0.0 mm 0.00 in0.0 mm 0.00 in0.0 mm
09:30 AM 46.3°F7.9°C 31.0°F-0.6°C 55% 11.0 mph S17.7 kmh S 22.0 mph35.4 kmh 30.19 in1022.4 mb 0.00 in0.0 mm 0.00 in0.0 mm 0.00 in0.0 mm
09:15 AM 44.7°F7.1°C 32.1°F0.1°C 61% 11.7 mph S18.8 kmh S 21.0 mph33.8 kmh 30.20 in1022.7 mb 0.00 in0.0 mm 0.00 in0.0 mm 0.00 in0.0 mm
09:00 AM 43.6°F6.4°C 32.6°F0.3°C 65% 10.3 mph S16.6 kmh S 18.0 mph29.0 kmh 30.21 in1023.0 mb 0.00 in0.0 mm 0.00 in0.0 mm 0.00 in0.0 mm
08:45 AM 42.3°F5.7°C 33.6°F0.9°C 71% 8.3 mph S13.4 kmh S 18.0 mph29.0 kmh 30.21 in1023.0 mb 0.00 in0.0 mm 0.00 in0.0 mm 0.00 in0.0 mm
08:30 AM 40.9°F4.9°C 33.6°F0.9°C 75% 8.0 mph S12.9 kmh S 20.0 mph32.2 kmh 30.22 in1023.4 mb 0.00 in0.0 mm 0.00 in0.0 mm 0.00 in0.0 mm
08:15 AM 39.6°F4.2°C 33.0°F0.6°C 77% 6.5 mph S10.5 kmh S 11.0 mph17.7 kmh 30.22 in1023.4 mb 0.00 in0.0 mm 0.00 in0.0 mm 0.00 in0.0 mm
08:00 AM 38.8°F3.8°C 32.5°F0.3°C 78% 6.2 mph S10.0 kmh S 13.0 mph20.9 kmh 30.22 in1023.4 mb 0.00 in0.0 mm 0.00 in0.0 mm 0.00 in0.0 mm
07:45 AM 38.9°F3.8°C 32.6°F0.3°C 78% 6.0 mph S9.7 kmh S 11.0 mph17.7 kmh 30.23 in1023.7 mb 0.00 in0.0 mm 0.00 in0.0 mm 0.00 in0.0 mm
07:30 AM 39.2°F4.0°C 32.9°F0.5°C 78% 7.0 mph S11.3 kmh S 11.0 mph17.7 kmh 30.23 in1023.7 mb 0.00 in0.0 mm 0.00 in0.0 mm 0.00 in0.0 mm
07:15 AM 39.1°F3.9°C 32.8°F0.4°C 78% 7.0 mph S11.3 kmh S 12.0 mph19.3 kmh 30.23 in1023.7 mb 0.00 in0.0 mm 0.00 in0.0 mm 0.00 in0.0 mm
07:00 AM 39.5°F4.2°C 32.9°F0.5°C 77% 6.9 mph S11.1 kmh S 13.0 mph20.9 kmh 30.23 in1023.7 mb 0.00 in0.0 mm 0.00 in0.0 mm 0.00 in0.0 mm
06:45 AM 39.6°F4.2°C 33.0°F0.6°C 77% 6.0 mph S9.7 kmh S 12.0 mph19.3 kmh 30.23 in1023.7 mb 0.00 in0.0 mm 0.00 in0.0 mm 0.00 in0.0 mm
06:30 AM 39.6°F4.2°C 33.3°F0.7°C 78% 6.0 mph S9.7 kmh S 12.0 mph19.3 kmh 30.24 in1024.0 mb 0.00 in0.0 mm 0.00 in0.0 mm 0.00 in0.0 mm
06:15 AM 39.6°F4.2°C 33.0°F0.6°C 77% 7.0 mph S11.3 kmh S 10.0 mph16.1 kmh 30.25 in1024.4 mb 0.00 in0.0 mm 0.00 in0.0 mm 0.00 in0.0 mm
06:00 AM 39.8°F4.3°C 32.8°F0.4°C 76% 7.2 mph S11.6 kmh S 13.0 mph20.9 kmh 30.25 in1024.4 mb 0.00 in0.0 mm 0.00 in0.0 mm 0.00 in0.0 mm
05:45 AM 39.4°F4.1°C 32.5°F0.3°C 76% 7.0 mph S11.3 kmh S 11.0 mph17.7 kmh 30.26 in1024.7 mb 0.00 in0.0 mm 0.00 in0.0 mm 0.00 in0.0 mm
05:30 AM 39.0°F3.9°C 32.1°F0.1°C 76% 4.4 mph S7.1 kmh S 12.0 mph19.3 kmh 30.27 in1025.1 mb 0.00 in0.0 mm 0.00 in0.0 mm 0.00 in0.0 mm
05:15 AM 37.8°F3.2°C 30.3°F-0.9°C 74% 2.0 mph S3.2 kmh S 7.0 mph11.3 kmh 30.27 in1025.1 mb 0.00 in0.0 mm 0.00 in0.0 mm 0.00 in0.0 mm
05:00 AM 37.3°F2.9°C 29.4°F-1.4°C 73% 2.0 mph S3.2 kmh S 6.0 mph9.7 kmh 30.28 in1025.4 mb 0.00 in0.0 mm 0.00 in0.0 mm 0.00 in0.0 mm
04:45 AM 35.3°F1.8°C 26.5°F-3.1°C 70% 2.3 mph S3.7 kmh S 5.0 mph8.0 kmh 30.28 in1025.4 mb 0.00 in0.0 mm 0.00 in0.0 mm 0.00 in0.0 mm
04:30 AM 34.2°F1.2°C 24.4°F-4.2°C 67% 2.2 mph S3.5 kmh S 5.0 mph8.0 kmh 30.28 in1025.4 mb 0.00 in0.0 mm 0.00 in0.0 mm 0.00 in0.0 mm
04:15 AM 34.3°F1.3°C 23.7°F-4.6°C 65% 0.6 mph S1.0 kmh S 4.0 mph6.4 kmh 30.28 in1025.4 mb 0.00 in0.0 mm 0.00 in0.0 mm 0.00 in0.0 mm
04:00 AM 34.3°F1.3°C 22.2°F-5.4°C 61% 0.4 mph S0.6 kmh S 2.0 mph3.2 kmh 30.29 in1025.7 mb 0.00 in0.0 mm 0.00 in0.0 mm 0.00 in0.0 mm
03:45 AM 36.7°F2.6°C 24.5°F-4.2°C 61% 2.0 mph S3.2 kmh S 6.0 mph9.7 kmh 30.30 in1026.1 mb 0.00 in0.0 mm 0.00 in0.0 mm 0.00 in0.0 mm
03:30 AM 36.5°F2.5°C 23.9°F-4.5°C 60% 3.0 mph S4.8 kmh S 5.0 mph8.0 kmh 30.31 in1026.4 mb 0.00 in0.0 mm 0.00 in0.0 mm 0.00 in0.0 mm
03:15 AM 36.6°F2.6°C 23.6°F-4.7°C 59% 3.6 mph S5.8 kmh S 6.0 mph9.7 kmh 30.31 in1026.4 mb 0.00 in0.0 mm 0.00 in0.0 mm 0.00 in0.0 mm
03:00 AM 36.3°F2.4°C 23.3°F-4.8°C 59% 3.0 mph S4.8 kmh S 6.0 mph9.7 kmh 30.32 in1026.8 mb 0.00 in0.0 mm 0.00 in0.0 mm 0.00 in0.0 mm
02:45 AM 35.8°F2.1°C 22.9°F-5.1°C 59% 3.0 mph S4.8 kmh S 6.0 mph9.7 kmh 30.33 in1027.1 mb 0.00 in0.0 mm 0.00 in0.0 mm 0.00 in0.0 mm
02:30 AM 35.3°F1.8°C 22.4°F-5.3°C 59% 3.0 mph S4.8 kmh S 5.0 mph8.0 kmh 30.33 in1027.1 mb 0.00 in0.0 mm 0.00 in0.0 mm 0.00 in0.0 mm
02:15 AM 35.1°F1.7°C 22.2°F-5.4°C 59% 2.8 mph S4.5 kmh S 6.0 mph9.7 kmh 30.34 in1027.4 mb 0.00 in0.0 mm 0.00 in0.0 mm 0.00 in0.0 mm
02:00 AM 34.7°F1.5°C 21.8°F-5.7°C 59% 1.7 mph S2.7 kmh S 4.0 mph6.4 kmh 30.34 in1027.4 mb 0.00 in0.0 mm 0.00 in0.0 mm 0.00 in0.0 mm
01:45 AM 34.6°F1.4°C 21.3°F-5.9°C 58% 2.8 mph S4.5 kmh S 5.0 mph8.0 kmh 30.34 in1027.4 mb 0.00 in0.0 mm 0.00 in0.0 mm 0.00 in0.0 mm
01:30 AM 35.1°F1.7°C 21.4°F-5.9°C 57% 3.8 mph S6.1 kmh S 6.0 mph9.7 kmh 30.34 in1027.4 mb 0.00 in0.0 mm 0.00 in0.0 mm 0.00 in0.0 mm
01:15 AM 33.9°F1.1°C 21.1°F-6.1°C 59% 2.4 mph SSW3.9 kmh SSW 6.0 mph9.7 kmh 30.34 in1027.4 mb 0.00 in0.0 mm 0.00 in0.0 mm 0.00 in0.0 mm
01:00 AM 34.6°F1.4°C 20.5°F-6.4°C 56% 3.0 mph SSW4.8 kmh SSW 4.0 mph6.4 kmh 30.34 in1027.4 mb 0.00 in0.0 mm 0.00 in0.0 mm 0.00 in0.0 mm
12:45 AM 35.1°F1.7°C 20.5°F-6.4°C 55% 1.8 mph SW2.9 kmh SW 5.0 mph8.0 kmh 30.35 in1027.8 mb 0.00 in0.0 mm 0.00 in0.0 mm 0.00 in0.0 mm
12:30 AM 35.3°F1.8°C 19.9°F-6.7°C 53% 1.0 mph W1.6 kmh W 3.0 mph4.8 kmh 30.35 in1027.8 mb 0.00 in0.0 mm 0.00 in0.0 mm 0.00 in0.0 mm
12:15 AM 36.6°F2.6°C 20.2°F-6.6°C 51% 0.4 mph W0.6 kmh W 2.0 mph3.2 kmh 30.36 in1028.1 mb 0.00 in0.0 mm 0.00 in0.0 mm 0.00 in0.0 mm
12:00 AM 37.9°F3.3°C 19.9°F-6.7°C 48% 0.2 mph W0.3 kmh W 1.0 mph1.6 kmh 30.36 in1028.1 mb 0.00 in0.0 mm 0.00 in0.0 mm 0.00 in0.0 mm